Flight Track Log - Related Links

Times and Time Zones

All times are in EDT time to prevent confusion due to time zone crossing. See the EJA929 flight status page for this flight to view local times or setup timezone preferences in your user account.

Time Position Orientation Groundspeed Altitude Reporting Facility
EDT Latitude Longitude Course Direction KTS MPH feet Rate Location/Type
Fri 01:57:25 PM 39.7000 -104.8667 360° North 244 281 10,300  Level Denver TRACON
Fri 01:58:19 PM 39.7667 -104.8333 21° North 295 339 11,700 1,431 Climbing Denver TRACON
Fri 01:59:14 PM 39.8353 -104.7944 24° Northeast 323 372 12,900 1,128 Climbing Denver Center
Fri 02:00:16 PM 39.9167 -104.7539 21° North 359 413 13,900 1,210 Climbing Denver Center
Fri 02:01:00 PM 39.9599 -104.3516 45° Northeast  Level FlightAware Approximate
Fri 02:01:18 PM 40.0378 -104.6917 21° North 379 436 15,400  Level Denver Center
Fri 02:02:20 PM 40.1147 -104.6289 32° Northeast 380 437 16,900 1,790 Climbing Denver Center
Fri 02:03:22 PM 40.2228 -104.5367 33° Northeast 370 426 19,100 1,887 Climbing Denver Center
Fri 02:04:24 PM 40.2961 -104.4747 33° Northeast 370 426 20,800 1,968 Climbing Denver Center
Fri 02:05:27 PM 40.4006 -104.3856 33° Northeast 364 419 23,200 1,920 Climbing Denver Center
Fri 02:06:29 PM 40.4761 -104.3200 33° Northeast 368 423 24,800 1,790 Climbing Denver Center
Fri 02:07:31 PM 40.5792 -104.2289 34° Northeast 372 428 26,900 1,887 Climbing Denver Center
Fri 02:08:33 PM 40.6572 -104.1300 44° Northeast 382 440 28,700 1,597 Climbing Denver Center
Fri 02:09:35 PM 40.7361 -104.0317 43° Northeast 387 445 30,200 1,452 Climbing Denver Center
Fri 02:10:37 PM 40.8183 -103.9278 44° Northeast 402 463 31,700 1,452 Climbing Denver Center
Fri 02:11:39 PM 40.9031 -103.8183 44° Northeast 420 483 33,200 1,445 Climbing Denver Center
Fri 02:12:54 PM 41.0217 -103.6636 45° Northeast 437 503 35,000 1,358 Climbing Denver Center
Fri 02:13:56 PM 41.1089 -103.5511 44° Northeast 452 520 36,300 1,355 Climbing Denver Center
Fri 02:14:58 PM 41.2128 -103.4150 45° Northeast 469 540 37,800 1,258 Climbing Denver Center
Fri 02:16:00 PM 41.3019 -103.2972 45° Northeast 472 543 38,900 1,016 Climbing Denver Center
Fri 02:17:02 PM 41.3978 -103.1442 50° Northeast 489 563 39,900 823 Climbing Denver Center
Fri 02:18:04 PM 41.4353 -102.9683 74° East 516 594 40,600 485 Climbing Denver Center
Fri 02:19:18 PM 41.4744 -102.7594 76° East 522 601 41,000 176 Climbing Denver Center
Fri 02:20:20 PM 41.5161 -102.5342 76° East 543 625 41,000  Level Denver Center
Fri 02:21:22 PM 41.5572 -102.3136 76° East 548 631 41,000  Level Denver Center
Fri 02:22:24 PM 41.6031 -102.1286 72° East 545 627 41,000  Level Denver Center
Fri 02:23:26 PM 41.6633 -101.9150 69° East 549 632 41,000  Level Denver Center
Fri 02:24:28 PM 41.7117 -101.7325 70° East 546 628 41,000  Level Denver Center
Fri 02:25:30 PM 41.7633 -101.5478 69° East 551 634 41,000  Level Denver Center
Fri 02:26:44 PM 41.8208 -101.3317 70° East 550 633 41,000  Level Denver Center
Fri 02:27:47 PM 41.8867 -101.0828 70° East 553 636 41,000  Level Denver Center
Fri 02:28:49 PM 41.9344 -100.8969 71° East 551 634 41,000  Level Denver Center
Fri 02:29:51 PM 41.9908 -100.6825 70° East 545 627 41,000  Level Denver Center
Fri 02:30:53 PM 42.0367 -100.4958 72° East 546 628 41,000  Level Denver Center
Fri 02:31:42 PM 42.0775 -100.3300 72° East 546 628 41,000  Level Minneapolis Center
Fri 02:32:44 PM 42.1244 -100.1361 72° East 544 626 41,000  Level Minneapolis Center
Fri 02:33:46 PM 42.1714 -99.9408 72° East 546 628 41,000  Level Minneapolis Center
Fri 02:35:13 PM 42.2311 -99.6867 72° East 549 632 41,000  Level Denver Center
Fri 02:36:16 PM 42.2836 -99.4694 72° East 545 627 41,000  Level Denver Center
Fri 02:36:52 PM 42.3117 -99.3497 72° East 551 634 41,000  Level Minneapolis Center
Fri 02:37:54 PM 42.3592 -99.1492 72° East 558 642 41,000  Level Minneapolis Center
Fri 02:38:56 PM 42.4144 -98.9081 73° East 557 641 41,000  Level Minneapolis Center
Fri 02:39:59 PM 42.4594 -98.7094 73° East 553 636 41,000  Level Minneapolis Center
Fri 02:41:01 PM 42.5047 -98.5106 73° East 551 634 41,000  Level Minneapolis Center
Fri 02:42:03 PM 42.5494 -98.3100 73° East 554 638 41,000  Level Minneapolis Center
Fri 02:43:05 PM 42.5942 -98.1106 73° East 552 635 41,000  Level Minneapolis Center
Fri 02:44:07 PM 42.6378 -97.9111 73° East 552 635 41,000  Level Minneapolis Center
Fri 02:45:09 PM 42.6842 -97.7033 73° East 547 629 41,000  Level Minneapolis Center
Fri 02:46:11 PM 42.7261 -97.5022 74° East 552 635 41,000  Level Minneapolis Center
Fri 02:47:13 PM 42.7778 -97.2625 74° East 554 638 41,000  Level Minneapolis Center
Fri 02:48:15 PM 42.8194 -97.0617 74° East 554 638 41,000  Level Minneapolis Center
Fri 02:49:17 PM 42.8617 -96.8603 74° East 555 639 41,000  Level Minneapolis Center
Fri 02:50:19 PM 42.9042 -96.6597 74° East 554 638 41,000  Level Minneapolis Center
Fri 02:51:21 PM 42.9458 -96.4583 74° East 555 639 41,000  Level Minneapolis Center
Fri 02:52:23 PM 42.9947 -96.2144 75° East 558 642 41,000  Level Minneapolis Center
Fri 02:53:25 PM 43.0350 -96.0122 75° East 557 641 41,000  Level Minneapolis Center
Fri 02:54:27 PM 43.0758 -95.8094 75° East 557 641 41,000  Level Minneapolis Center
Fri 02:55:29 PM 43.1158 -95.6047 75° East 560 644 41,000  Level Minneapolis Center
Fri 02:56:32 PM 43.1561 -95.4003 75° East 561 646 41,000  Level Minneapolis Center
Fri 02:57:34 PM 43.1950 -95.1958 75° East 560 644 41,000  Level Minneapolis Center
Fri 02:58:36 PM 43.2425 -94.9500 75° East 560 644 41,000  Level Minneapolis Center
Fri 02:59:38 PM 43.2817 -94.7433 75° East 562 647 41,000  Level Minneapolis Center
Fri 03:00:52 PM 43.3192 -94.5369 76° East 560 644 41,000  Level Minneapolis Center
Fri 03:01:54 PM 43.3644 -94.2886 76° East 561 646 41,000  Level Minneapolis Center
Fri 03:02:56 PM 43.4058 -94.0558 76° East 565 650 41,000  Level Minneapolis Center
Fri 03:03:58 PM 43.4367 -93.8906 76° East 566 651 41,000  Level Minneapolis Center
Fri 03:05:01 PM 43.4811 -93.6414 76° East 564 649 41,000  Level Minneapolis Center
Fri 03:06:03 PM 43.5172 -93.4336 76° East 562 647 41,000  Level Minneapolis Center
Fri 03:07:05 PM 43.5586 -93.1994 76° East 561 646 41,000  Level Minneapolis Center
Fri 03:08:07 PM 43.5972 -92.9736 77° East 566 651 41,000  Level Minneapolis Center
Fri 03:09:08 PM 43.6256 -92.8058 77° East 566 651 41,000  Level Minneapolis Center
Fri 03:10:11 PM 43.6683 -92.5539 77° East 565 650 41,000  Level Minneapolis Center
Fri 03:11:13 PM 43.7042 -92.3375 77° East 579 666 41,000  Level Minneapolis Center
Fri 03:12:15 PM 43.7456 -92.0836 77° East 567 652 41,000  Level Minneapolis Center
Fri 03:13:17 PM 43.7806 -91.8708 77° East 568 654 41,000  Level Minneapolis Center
Fri 03:14:19 PM 43.8139 -91.6597 78° East 563 648 41,000 -339 Level Minneapolis Center
Fri 03:15:21 PM 43.8469 -91.4472 78° East 564 649 40,300 -1,306 Descending Minneapolis Center
Fri 03:16:23 PM 43.8756 -91.2389 79° East 560 644 38,300 -1,920 Descending Minneapolis Center
Fri 03:17:26 PM 43.8744 -91.0236 90° East 560 644 36,300 -2,112 Descending Minneapolis Center
Fri 03:18:28 PM 43.8683 -90.7597 92° East 571 657 33,900 -2,177 Descending Minneapolis Center
Fri 03:19:30 PM 43.8628 -90.5261 92° East 575 662 31,800 -2,000 Descending Minneapolis Center
Fri 03:20:04 PM 43.8603 -90.4086 92° East 576 663 30,700 -1,875 Descending Chicago Center
Fri 03:21:06 PM 43.8542 -90.1928 92° East 579 666 28,800 -1,872 Descending Chicago Center
Fri 03:22:09 PM 43.8481 -89.9717 92° East 574 661 26,800 -2,016 Descending Chicago Center
Fri 03:23:11 PM 43.8411 -89.7189 92° East 561 646 24,600 -1,839 Descending Chicago Center
Fri 03:24:13 PM 43.8342 -89.5156 93° East 534 615 23,000 -1,597 Descending Chicago Center
Fri 03:25:15 PM 43.8281 -89.3178 92° East 514 592 21,300 -1,935 Descending Chicago Center
Fri 03:26:17 PM 43.8217 -89.1211 93° East 511 588 19,000 -2,468 Descending Chicago Center
Fri 03:27:19 PM 43.8150 -88.9294 93° East 497 572 16,200 -2,613 Descending Chicago Center
Fri 03:28:21 PM 43.8067 -88.7300 93° East 442 509 13,600 -2,274 Descending Chicago Center
Fri 03:29:23 PM 43.8003 -88.5658 93° East 426 490 11,500 -1,887 Descending Chicago Center
Fri 03:30:25 PM 43.7953 -88.4217 93° East 374 430 9,700 -1,632 Descending Chicago Center
Fri 03:31:28 PM 43.7903 -88.2972 93° East 327 376 8,100 -1,536 Descending Chicago Center
Fri 03:32:30 PM 43.7847 -88.1750 94° East 317 365 6,500 -1,548 Descending Chicago Center
Fri 03:33:32 PM 43.7794 -88.0542 93° East 314 361 4,900 -1,452 Descending Chicago Center
Fri 03:34:34 PM 43.7750 -87.9339 93° East 297 342 3,500 -1,355 Descending Chicago Center

Login

Don't have an account? Register now (free) for customized features, flight alerts, and more!